sensor_id;sensor_type;location;lat;lon;timestamp;P1;durP1;ratioP1;P2;durP2;ratioP2
67092;SDS011;54011;50.772;7.730;2022-08-11T00:00:18;7.10;;;2.72;;
67092;SDS011;54011;50.772;7.730;2022-08-11T00:02:50;6.70;;;3.00;;
67092;SDS011;54011;50.772;7.730;2022-08-11T00:05:17;6.75;;;2.80;;
67092;SDS011;54011;50.772;7.730;2022-08-11T00:07:51;9.52;;;2.80;;
67092;SDS011;54011;50.772;7.730;2022-08-11T00:10:22;4.43;;;2.35;;
67092;SDS011;54011;50.772;7.730;2022-08-11T00:12:56;6.40;;;2.90;;
67092;SDS011;54011;50.772;7.730;2022-08-11T00:15:25;6.28;;;2.75;;
67092;SDS011;54011;50.772;7.730;2022-08-11T00:17:56;8.70;;;2.95;;
67092;SDS011;54011;50.772;7.730;2022-08-11T00:20:27;5.85;;;2.90;;
67092;SDS011;54011;50.772;7.730;2022-08-11T00:23:00;5.80;;;2.50;;
67092;SDS011;54011;50.772;7.730;2022-08-11T00:25:28;5.65;;;2.80;;
67092;SDS011;54011;50.772;7.730;2022-08-11T00:27:54;5.65;;;2.72;;
67092;SDS011;54011;50.772;7.730;2022-08-11T00:30:20;6.13;;;3.00;;
67092;SDS011;54011;50.772;7.730;2022-08-11T00:32:51;7.72;;;3.05;;
67092;SDS011;54011;50.772;7.730;2022-08-11T00:35:21;5.63;;;2.47;;
67092;SDS011;54011;50.772;7.730;2022-08-11T00:37:51;6.40;;;2.90;;
67092;SDS011;54011;50.772;7.730;2022-08-11T00:40:23;6.88;;;2.90;;
67092;SDS011;54011;50.772;7.730;2022-08-11T00:46:15;5.63;;;2.83;;
67092;SDS011;54011;50.772;7.730;2022-08-11T00:48:38;5.35;;;2.70;;
67092;SDS011;54011;50.772;7.730;2022-08-11T00:51:19;8.00;;;2.83;;
67092;SDS011;54011;50.772;7.730;2022-08-11T00:59:47;5.28;;;2.90;;
67092;SDS011;54011;50.772;7.730;2022-08-11T01:08:11;6.40;;;3.05;;
67092;SDS011;54011;50.772;7.730;2022-08-11T01:14:23;7.28;;;3.40;;
67092;SDS011;54011;50.772;7.730;2022-08-11T01:25:20;7.70;;;2.80;;
67092;SDS011;54011;50.772;7.730;2022-08-11T01:33:50;4.80;;;2.80;;
67092;SDS011;54011;50.772;7.730;2022-08-11T01:39:55;7.10;;;3.40;;
67092;SDS011;54011;50.772;7.730;2022-08-11T01:48:18;5.97;;;3.38;;
67092;SDS011;54011;50.772;7.730;2022-08-11T01:56:31;6.30;;;3.20;;
67092;SDS011;54011;50.772;7.730;2022-08-11T02:04:37;5.75;;;3.30;;
67092;SDS011;54011;50.772;7.730;2022-08-11T02:07:16;7.65;;;3.60;;
67092;SDS011;54011;50.772;7.730;2022-08-11T02:09:59;5.72;;;3.40;;
67092;SDS011;54011;50.772;7.730;2022-08-11T02:12:53;5.85;;;3.00;;
67092;SDS011;54011;50.772;7.730;2022-08-11T02:15:37;5.40;;;3.22;;
67092;SDS011;54011;50.772;7.730;2022-08-11T02:18:12;6.60;;;3.15;;
67092;SDS011;54011;50.772;7.730;2022-08-11T02:20:56;5.72;;;3.17;;
67092;SDS011;54011;50.772;7.730;2022-08-11T02:23:57;5.65;;;3.38;;
67092;SDS011;54011;50.772;7.730;2022-08-11T02:26:41;6.32;;;3.25;;
67092;SDS011;54011;50.772;7.730;2022-08-11T02:32:04;6.20;;;3.28;;
67092;SDS011;54011;50.772;7.730;2022-08-11T02:34:59;6.93;;;3.30;;
67092;SDS011;54011;50.772;7.730;2022-08-11T02:43:12;9.80;;;4.00;;
67092;SDS011;54011;50.772;7.730;2022-08-11T02:45:55;6.72;;;3.53;;
67092;SDS011;54011;50.772;7.730;2022-08-11T02:51:41;7.18;;;3.42;;
67092;SDS011;54011;50.772;7.730;2022-08-11T02:56:51;6.05;;;3.35;;
67092;SDS011;54011;50.772;7.730;2022-08-11T02:59:27;5.80;;;3.83;;
67092;SDS011;54011;50.772;7.730;2022-08-11T03:13:38;6.22;;;3.22;;
67092;SDS011;54011;50.772;7.730;2022-08-11T03:16:45;6.22;;;3.45;;
67092;SDS011;54011;50.772;7.730;2022-08-11T03:27:19;6.22;;;3.67;;
67092;SDS011;54011;50.772;7.730;2022-08-11T03:30:28;8.18;;;3.55;;
67092;SDS011;54011;50.772;7.730;2022-08-11T03:32:53;6.95;;;3.80;;
67092;SDS011;54011;50.772;7.730;2022-08-11T03:36:09;7.78;;;3.75;;
67092;SDS011;54011;50.772;7.730;2022-08-11T03:38:44;9.80;;;4.05;;
67092;SDS011;54011;50.772;7.730;2022-08-11T03:41:58;7.28;;;3.58;;
67092;SDS011;54011;50.772;7.730;2022-08-11T03:44:23;6.38;;;3.40;;
67092;SDS011;54011;50.772;7.730;2022-08-11T03:46:58;6.50;;;3.70;;
67092;SDS011;54011;50.772;7.730;2022-08-11T03:49:42;8.02;;;3.83;;
67092;SDS011;54011;50.772;7.730;2022-08-11T04:15:12;7.22;;;4.05;;
67092;SDS011;54011;50.772;7.730;2022-08-11T04:18:27;7.93;;;3.90;;
67092;SDS011;54011;50.772;7.730;2022-08-11T04:30:09;9.32;;;4.15;;
67092;SDS011;54011;50.772;7.730;2022-08-11T04:41:28;8.55;;;3.95;;
67092;SDS011;54011;50.772;7.730;2022-08-11T04:44:58;10.45;;;4.05;;
67092;SDS011;54011;50.772;7.730;2022-08-11T04:53:40;6.10;;;3.83;;
67092;SDS011;54011;50.772;7.730;2022-08-11T04:56:37;6.35;;;3.72;;
67092;SDS011;54011;50.772;7.730;2022-08-11T04:59:30;8.20;;;3.90;;
67092;SDS011;54011;50.772;7.730;2022-08-11T05:11:06;6.60;;;3.78;;
67092;SDS011;54011;50.772;7.730;2022-08-11T05:16:57;7.82;;;4.00;;
67092;SDS011;54011;50.772;7.730;2022-08-11T05:19:46;7.07;;;3.90;;
67092;SDS011;54011;50.772;7.730;2022-08-11T05:22:31;5.55;;;3.70;;
67092;SDS011;54011;50.772;7.730;2022-08-11T05:25:21;8.82;;;4.28;;
67092;SDS011;54011;50.772;7.730;2022-08-11T05:28:11;6.38;;;3.92;;
67092;SDS011;54011;50.772;7.730;2022-08-11T05:31:08;7.70;;;3.80;;
67092;SDS011;54011;50.772;7.730;2022-08-11T05:34:00;5.93;;;3.70;;
67092;SDS011;54011;50.772;7.730;2022-08-11T05:36:53;8.18;;;3.95;;
67092;SDS011;54011;50.772;7.730;2022-08-11T05:39:27;7.80;;;4.15;;
67092;SDS011;54011;50.772;7.730;2022-08-11T05:42:12;6.28;;;3.75;;
67092;SDS011;54011;50.772;7.730;2022-08-11T05:45:03;5.57;;;3.42;;
67092;SDS011;54011;50.772;7.730;2022-08-11T05:47:52;6.03;;;3.83;;
67092;SDS011;54011;50.772;7.730;2022-08-11T05:50:37;10.45;;;3.83;;
67092;SDS011;54011;50.772;7.730;2022-08-11T05:53:22;7.72;;;3.92;;
67092;SDS011;54011;50.772;7.730;2022-08-11T05:56:07;8.68;;;3.63;;
67092;SDS011;54011;50.772;7.730;2022-08-11T05:58:45;9.95;;;3.92;;
67092;SDS011;54011;50.772;7.730;2022-08-11T06:01:30;5.78;;;3.40;;
67092;SDS011;54011;50.772;7.730;2022-08-11T06:03:58;6.25;;;3.42;;
67092;SDS011;54011;50.772;7.730;2022-08-11T06:06:45;6.93;;;3.75;;
67092;SDS011;54011;50.772;7.730;2022-08-11T06:12:04;6.75;;;3.50;;
67092;SDS011;54011;50.772;7.730;2022-08-11T06:14:32;9.50;;;3.38;;
67092;SDS011;54011;50.772;7.730;2022-08-11T06:17:00;6.78;;;3.67;;
67092;SDS011;54011;50.772;7.730;2022-08-11T06:19:35;5.68;;;3.17;;
67092;SDS011;54011;50.772;7.730;2022-08-11T06:22:04;7.35;;;3.50;;
67092;SDS011;54011;50.772;7.730;2022-08-11T06:24:31;9.68;;;3.80;;
67092;SDS011;54011;50.772;7.730;2022-08-11T06:26:58;10.45;;;3.33;;
67092;SDS011;54011;50.772;7.730;2022-08-11T06:29:25;8.52;;;3.33;;
67092;SDS011;54011;50.772;7.730;2022-08-11T06:31:55;7.75;;;2.92;;
67092;SDS011;54011;50.772;7.730;2022-08-11T06:34:37;10.20;;;3.20;;
67092;SDS011;54011;50.772;7.730;2022-08-11T06:37:19;6.57;;;3.42;;
67092;SDS011;54011;50.772;7.730;2022-08-11T06:42:53;8.32;;;2.90;;
67092;SDS011;54011;50.772;7.730;2022-08-11T06:45:35;6.72;;;3.20;;
67092;SDS011;54011;50.772;7.730;2022-08-11T06:48:07;10.20;;;3.10;;
67092;SDS011;54011;50.772;7.730;2022-08-11T06:50:40;10.75;;;3.22;;
67092;SDS011;54011;50.772;7.730;2022-08-11T06:53:32;6.75;;;3.08;;
67092;SDS011;54011;50.772;7.730;2022-08-11T06:55:58;6.93;;;3.40;;
67092;SDS011;54011;50.772;7.730;2022-08-11T06:58:46;8.60;;;3.10;;
67092;SDS011;54011;50.772;7.730;2022-08-11T07:01:40;5.53;;;2.85;;
67092;SDS011;54011;50.772;7.730;2022-08-11T07:04:12;6.13;;;2.80;;
67092;SDS011;54011;50.772;7.730;2022-08-11T07:06:47;6.65;;;2.97;;
67092;SDS011;54011;50.772;7.730;2022-08-11T07:12:44;7.35;;;3.08;;
67092;SDS011;54011;50.772;7.730;2022-08-11T07:15:31;6.45;;;2.95;;
67092;SDS011;54011;50.772;7.730;2022-08-11T07:18:22;6.82;;;2.70;;
67092;SDS011;54011;50.772;7.730;2022-08-11T07:21:28;6.78;;;3.35;;
67092;SDS011;54011;50.772;7.730;2022-08-11T07:24:14;7.15;;;2.80;;
67092;SDS011;54011;50.772;7.730;2022-08-11T07:27:02;8.25;;;2.85;;
67092;SDS011;54011;50.772;7.730;2022-08-11T07:29:48;7.28;;;2.75;;
67092;SDS011;54011;50.772;7.730;2022-08-11T07:32:19;8.35;;;3.00;;
67092;SDS011;54011;50.772;7.730;2022-08-11T07:34:50;6.32;;;2.55;;
67092;SDS011;54011;50.772;7.730;2022-08-11T07:37:20;8.00;;;2.80;;
67092;SDS011;54011;50.772;7.730;2022-08-11T07:39:47;6.50;;;2.75;;
67092;SDS011;54011;50.772;7.730;2022-08-11T07:42:15;7.25;;;2.83;;
67092;SDS011;54011;50.772;7.730;2022-08-11T07:44:44;7.57;;;2.70;;
67092;SDS011;54011;50.772;7.730;2022-08-11T07:47:30;6.25;;;3.05;;
67092;SDS011;54011;50.772;7.730;2022-08-11T07:50:31;6.50;;;3.10;;
67092;SDS011;54011;50.772;7.730;2022-08-11T07:53:16;9.25;;;3.08;;
67092;SDS011;54011;50.772;7.730;2022-08-11T07:55:43;5.80;;;2.63;;
67092;SDS011;54011;50.772;7.730;2022-08-11T07:58:09;8.20;;;2.70;;
67092;SDS011;54011;50.772;7.730;2022-08-11T08:00:54;7.30;;;2.60;;
67092;SDS011;54011;50.772;7.730;2022-08-11T08:03:41;7.93;;;2.80;;
67092;SDS011;54011;50.772;7.730;2022-08-11T08:06:27;9.18;;;3.05;;
67092;SDS011;54011;50.772;7.730;2022-08-11T08:09:12;8.38;;;2.50;;
67092;SDS011;54011;50.772;7.730;2022-08-11T08:12:01;10.23;;;2.60;;
67092;SDS011;54011;50.772;7.730;2022-08-11T08:14:47;9.57;;;2.72;;
67092;SDS011;54011;50.772;7.730;2022-08-11T08:17:32;5.10;;;2.63;;
67092;SDS011;54011;50.772;7.730;2022-08-11T08:20:19;11.18;;;2.78;;
67092;SDS011;54011;50.772;7.730;2022-08-11T08:22:50;5.18;;;2.40;;
67092;SDS011;54011;50.772;7.730;2022-08-11T08:25:20;7.43;;;2.50;;
67092;SDS011;54011;50.772;7.730;2022-08-11T08:27:53;5.20;;;2.30;;
67092;SDS011;54011;50.772;7.730;2022-08-11T08:30:20;8.23;;;2.70;;
67092;SDS011;54011;50.772;7.730;2022-08-11T08:33:04;4.90;;;2.50;;
67092;SDS011;54011;50.772;7.730;2022-08-11T08:35:32;8.00;;;2.10;;
67092;SDS011;54011;50.772;7.730;2022-08-11T08:38:00;10.10;;;2.40;;
67092;SDS011;54011;50.772;7.730;2022-08-11T08:40:26;9.70;;;2.28;;
67092;SDS011;54011;50.772;7.730;2022-08-11T08:42:52;7.82;;;2.50;;
67092;SDS011;54011;50.772;7.730;2022-08-11T08:45:20;8.30;;;2.35;;
67092;SDS011;54011;50.772;7.730;2022-08-11T08:47:50;5.60;;;2.45;;
67092;SDS011;54011;50.772;7.730;2022-08-11T08:50:21;7.88;;;2.33;;
67092;SDS011;54011;50.772;7.730;2022-08-11T08:53:08;5.00;;;2.00;;
67092;SDS011;54011;50.772;7.730;2022-08-11T08:55:34;7.38;;;2.40;;
67092;SDS011;54011;50.772;7.730;2022-08-11T08:58:02;7.35;;;2.25;;
67092;SDS011;54011;50.772;7.730;2022-08-11T09:00:50;7.05;;;2.22;;
67092;SDS011;54011;50.772;7.730;2022-08-11T09:03:15;5.05;;;2.25;;
67092;SDS011;54011;50.772;7.730;2022-08-11T09:05:41;7.18;;;2.13;;
67092;SDS011;54011;50.772;7.730;2022-08-11T09:08:06;4.00;;;2.05;;
67092;SDS011;54011;50.772;7.730;2022-08-11T09:10:32;7.50;;;2.20;;
67092;SDS011;54011;50.772;7.730;2022-08-11T09:12:59;6.95;;;2.50;;
67092;SDS011;54011;50.772;7.730;2022-08-11T09:15:26;6.22;;;2.38;;
67092;SDS011;54011;50.772;7.730;2022-08-11T09:17:53;6.78;;;2.05;;
67092;SDS011;54011;50.772;7.730;2022-08-11T09:20:30;5.35;;;2.45;;
67092;SDS011;54011;50.772;7.730;2022-08-11T09:22:58;4.30;;;2.03;;
67092;SDS011;54011;50.772;7.730;2022-08-11T09:25:46;10.35;;;2.15;;
67092;SDS011;54011;50.772;7.730;2022-08-11T09:28:30;6.13;;;2.20;;
67092;SDS011;54011;50.772;7.730;2022-08-11T09:30:57;8.50;;;2.13;;
67092;SDS011;54011;50.772;7.730;2022-08-11T09:33:25;4.30;;;2.10;;
67092;SDS011;54011;50.772;7.730;2022-08-11T09:35:53;8.27;;;2.20;;
67092;SDS011;54011;50.772;7.730;2022-08-11T09:38:19;9.30;;;2.75;;
67092;SDS011;54011;50.772;7.730;2022-08-11T09:41:07;5.78;;;2.30;;
67092;SDS011;54011;50.772;7.730;2022-08-11T09:43:43;6.35;;;2.20;;
67092;SDS011;54011;50.772;7.730;2022-08-11T09:46:28;7.55;;;2.20;;
67092;SDS011;54011;50.772;7.730;2022-08-11T09:48:57;9.48;;;2.40;;
67092;SDS011;54011;50.772;7.730;2022-08-11T09:51:23;9.25;;;2.60;;
67092;SDS011;54011;50.772;7.730;2022-08-11T09:53:53;7.35;;;2.20;;
67092;SDS011;54011;50.772;7.730;2022-08-11T09:56:21;5.97;;;2.40;;
67092;SDS011;54011;50.772;7.730;2022-08-11T09:59:06;4.43;;;2.22;;
67092;SDS011;54011;50.772;7.730;2022-08-11T10:01:42;5.78;;;2.20;;
67092;SDS011;54011;50.772;7.730;2022-08-11T10:04:13;6.22;;;2.20;;
67092;SDS011;54011;50.772;7.730;2022-08-11T10:06:40;5.75;;;2.15;;
67092;SDS011;54011;50.772;7.730;2022-08-11T10:09:28;5.20;;;2.38;;
67092;SDS011;54011;50.772;7.730;2022-08-11T10:12:01;7.65;;;2.20;;
67092;SDS011;54011;50.772;7.730;2022-08-11T10:14:29;10.50;;;2.25;;
67092;SDS011;54011;50.772;7.730;2022-08-11T10:17:15;8.07;;;2.35;;
67092;SDS011;54011;50.772;7.730;2022-08-11T10:19:45;7.78;;;2.10;;
67092;SDS011;54011;50.772;7.730;2022-08-11T10:22:13;4.38;;;2.00;;
67092;SDS011;54011;50.772;7.730;2022-08-11T10:25:00;7.13;;;2.00;;
67092;SDS011;54011;50.772;7.730;2022-08-11T10:27:46;5.25;;;2.22;;
67092;SDS011;54011;50.772;7.730;2022-08-11T10:30:18;6.38;;;2.30;;
67092;SDS011;54011;50.772;7.730;2022-08-11T10:33:03;9.43;;;2.50;;
67092;SDS011;54011;50.772;7.730;2022-08-11T10:35:47;5.90;;;2.33;;
67092;SDS011;54011;50.772;7.730;2022-08-11T10:38:13;9.48;;;2.13;;
67092;SDS011;54011;50.772;7.730;2022-08-11T10:40:39;7.28;;;2.47;;
67092;SDS011;54011;50.772;7.730;2022-08-11T10:43:09;6.00;;;2.35;;
67092;SDS011;54011;50.772;7.730;2022-08-11T10:45:39;6.78;;;2.05;;
67092;SDS011;54011;50.772;7.730;2022-08-11T10:48:26;9.70;;;2.45;;
67092;SDS011;54011;50.772;7.730;2022-08-11T10:50:53;5.97;;;2.30;;
67092;SDS011;54011;50.772;7.730;2022-08-11T10:53:42;7.88;;;2.65;;
67092;SDS011;54011;50.772;7.730;2022-08-11T10:56:29;8.00;;;2.15;;
67092;SDS011;54011;50.772;7.730;2022-08-11T10:59:17;6.77;;;2.57;;
67092;SDS011;54011;50.772;7.730;2022-08-11T11:01:44;7.63;;;2.30;;
67092;SDS011;54011;50.772;7.730;2022-08-11T11:04:14;6.80;;;2.10;;
67092;SDS011;54011;50.772;7.730;2022-08-11T11:09:33;4.93;;;2.30;;
67092;SDS011;54011;50.772;7.730;2022-08-11T11:15:16;6.57;;;2.30;;
67092;SDS011;54011;50.772;7.730;2022-08-11T11:18:03;6.75;;;2.22;;
67092;SDS011;54011;50.772;7.730;2022-08-11T11:23:10;5.72;;;2.10;;
67092;SDS011;54011;50.772;7.730;2022-08-11T11:34:16;5.78;;;2.10;;
67092;SDS011;54011;50.772;7.730;2022-08-11T11:36:54;6.45;;;2.17;;
67092;SDS011;54011;50.772;7.730;2022-08-11T11:39:25;6.05;;;2.20;;
67092;SDS011;54011;50.772;7.730;2022-08-11T11:41:53;6.22;;;2.10;;
67092;SDS011;54011;50.772;7.730;2022-08-11T11:44:22;7.75;;;2.50;;
67092;SDS011;54011;50.772;7.730;2022-08-11T11:46:49;4.13;;;2.00;;
67092;SDS011;54011;50.772;7.730;2022-08-11T11:49:18;4.43;;;2.05;;
67092;SDS011;54011;50.772;7.730;2022-08-11T11:51:48;4.70;;;2.10;;
67092;SDS011;54011;50.772;7.730;2022-08-11T11:54:16;4.38;;;1.95;;
67092;SDS011;54011;50.772;7.730;2022-08-11T11:56:45;4.93;;;2.10;;
67092;SDS011;54011;50.772;7.730;2022-08-11T11:59:11;7.10;;;2.10;;
67092;SDS011;54011;50.772;7.730;2022-08-11T12:01:56;8.52;;;2.30;;
67092;SDS011;54011;50.772;7.730;2022-08-11T12:04:21;8.45;;;2.22;;
67092;SDS011;54011;50.772;7.730;2022-08-11T12:06:48;6.13;;;2.30;;
67092;SDS011;54011;50.772;7.730;2022-08-11T12:09:14;8.25;;;2.00;;
67092;SDS011;54011;50.772;7.730;2022-08-11T12:11:42;4.30;;;2.10;;
67092;SDS011;54011;50.772;7.730;2022-08-11T12:14:27;4.95;;;2.03;;
67092;SDS011;54011;50.772;7.730;2022-08-11T12:16:54;8.43;;;2.35;;
67092;SDS011;54011;50.772;7.730;2022-08-11T12:19:22;5.50;;;1.90;;
67092;SDS011;54011;50.772;7.730;2022-08-11T12:21:49;8.35;;;2.28;;
67092;SDS011;54011;50.772;7.730;2022-08-11T12:24:35;6.57;;;2.40;;
67092;SDS011;54011;50.772;7.730;2022-08-11T12:27:20;5.18;;;2.20;;
67092;SDS011;54011;50.772;7.730;2022-08-11T12:29:47;4.72;;;1.90;;
67092;SDS011;54011;50.772;7.730;2022-08-11T12:32:15;4.78;;;2.20;;
67092;SDS011;54011;50.772;7.730;2022-08-11T12:34:41;5.53;;;2.30;;
67092;SDS011;54011;50.772;7.730;2022-08-11T12:37:07;8.18;;;2.30;;
67092;SDS011;54011;50.772;7.730;2022-08-11T12:39:37;4.63;;;2.05;;
67092;SDS011;54011;50.772;7.730;2022-08-11T12:42:26;4.72;;;2.08;;
67092;SDS011;54011;50.772;7.730;2022-08-11T12:45:14;4.00;;;2.00;;
67092;SDS011;54011;50.772;7.730;2022-08-11T12:47:52;4.35;;;2.30;;
67092;SDS011;54011;50.772;7.730;2022-08-11T12:50:50;8.45;;;2.13;;
67092;SDS011;54011;50.772;7.730;2022-08-11T12:53:39;8.27;;;2.03;;
67092;SDS011;54011;50.772;7.730;2022-08-11T12:56:09;6.78;;;2.30;;
67092;SDS011;54011;50.772;7.730;2022-08-11T12:58:53;4.28;;;1.98;;
67092;SDS011;54011;50.772;7.730;2022-08-11T13:01:39;5.07;;;1.90;;
67092;SDS011;54011;50.772;7.730;2022-08-11T13:04:23;5.65;;;1.98;;
67092;SDS011;54011;50.772;7.730;2022-08-11T13:07:08;5.32;;;2.20;;
67092;SDS011;54011;50.772;7.730;2022-08-11T13:09:34;6.60;;;2.22;;
67092;SDS011;54011;50.772;7.730;2022-08-11T13:11:59;7.90;;;1.90;;
67092;SDS011;54011;50.772;7.730;2022-08-11T13:14:45;5.22;;;2.05;;
67092;SDS011;54011;50.772;7.730;2022-08-11T13:17:12;6.38;;;2.00;;
67092;SDS011;54011;50.772;7.730;2022-08-11T13:19:46;5.68;;;1.95;;
67092;SDS011;54011;50.772;7.730;2022-08-11T13:22:14;4.28;;;1.90;;
67092;SDS011;54011;50.772;7.730;2022-08-11T13:24:41;11.85;;;2.15;;
67092;SDS011;54011;50.772;7.730;2022-08-11T13:27:08;6.82;;;2.10;;
67092;SDS011;54011;50.772;7.730;2022-08-11T13:29:36;3.30;;;1.88;;
67092;SDS011;54011;50.772;7.730;2022-08-11T13:32:05;6.97;;;2.40;;
67092;SDS011;54011;50.772;7.730;2022-08-11T13:34:31;4.97;;;1.92;;
67092;SDS011;54011;50.772;7.730;2022-08-11T13:36:58;4.80;;;2.28;;
67092;SDS011;54011;50.772;7.730;2022-08-11T13:39:26;7.20;;;2.00;;
67092;SDS011;54011;50.772;7.730;2022-08-11T13:41:54;5.70;;;2.30;;
67092;SDS011;54011;50.772;7.730;2022-08-11T13:44:21;8.35;;;2.25;;
67092;SDS011;54011;50.772;7.730;2022-08-11T13:46:51;5.90;;;2.00;;
67092;SDS011;54011;50.772;7.730;2022-08-11T13:49:20;6.78;;;2.35;;
67092;SDS011;54011;50.772;7.730;2022-08-11T13:51:46;6.35;;;2.20;;
67092;SDS011;54011;50.772;7.730;2022-08-11T13:54:16;5.65;;;2.33;;
67092;SDS011;54011;50.772;7.730;2022-08-11T13:56:44;8.65;;;1.90;;
67092;SDS011;54011;50.772;7.730;2022-08-11T13:59:12;5.90;;;2.20;;
67092;SDS011;54011;50.772;7.730;2022-08-11T14:01:55;4.78;;;1.90;;
67092;SDS011;54011;50.772;7.730;2022-08-11T14:04:27;7.60;;;2.22;;
67092;SDS011;54011;50.772;7.730;2022-08-11T14:07:04;5.60;;;2.20;;
67092;SDS011;54011;50.772;7.730;2022-08-11T14:09:34;5.95;;;2.22;;
67092;SDS011;54011;50.772;7.730;2022-08-11T14:12:02;4.93;;;2.33;;
67092;SDS011;54011;50.772;7.730;2022-08-11T14:14:58;9.05;;;2.17;;
67092;SDS011;54011;50.772;7.730;2022-08-11T14:17:28;6.88;;;2.00;;
67092;SDS011;54011;50.772;7.730;2022-08-11T14:19:57;8.30;;;2.00;;
67092;SDS011;54011;50.772;7.730;2022-08-11T14:22:27;8.73;;;2.00;;
67092;SDS011;54011;50.772;7.730;2022-08-11T14:24:56;15.00;;;2.10;;
67092;SDS011;54011;50.772;7.730;2022-08-11T14:27:22;5.15;;;2.08;;
67092;SDS011;54011;50.772;7.730;2022-08-11T14:29:55;7.38;;;2.08;;
67092;SDS011;54011;50.772;7.730;2022-08-11T14:32:21;5.43;;;2.05;;
67092;SDS011;54011;50.772;7.730;2022-08-11T14:34:48;7.15;;;2.33;;
67092;SDS011;54011;50.772;7.730;2022-08-11T14:37:17;4.85;;;1.90;;
67092;SDS011;54011;50.772;7.730;2022-08-11T14:39:58;5.85;;;2.15;;
67092;SDS011;54011;50.772;7.730;2022-08-11T14:42:25;5.20;;;2.17;;
67092;SDS011;54011;50.772;7.730;2022-08-11T14:45:10;6.75;;;2.13;;
67092;SDS011;54011;50.772;7.730;2022-08-11T14:48:01;5.15;;;2.47;;
67092;SDS011;54011;50.772;7.730;2022-08-11T14:50:30;5.85;;;2.30;;
67092;SDS011;54011;50.772;7.730;2022-08-11T14:52:58;7.40;;;2.55;;
67092;SDS011;54011;50.772;7.730;2022-08-11T14:55:25;3.80;;;2.15;;
67092;SDS011;54011;50.772;7.730;2022-08-11T14:58:13;6.22;;;2.10;;
67092;SDS011;54011;50.772;7.730;2022-08-11T15:00:40;7.47;;;2.00;;
67092;SDS011;54011;50.772;7.730;2022-08-11T15:03:07;3.97;;;2.13;;
67092;SDS011;54011;50.772;7.730;2022-08-11T15:05:38;5.20;;;2.20;;
67092;SDS011;54011;50.772;7.730;2022-08-11T15:08:08;6.40;;;2.20;;
67092;SDS011;54011;50.772;7.730;2022-08-11T15:10:33;4.72;;;2.00;;
67092;SDS011;54011;50.772;7.730;2022-08-11T15:13:00;5.47;;;2.20;;
67092;SDS011;54011;50.772;7.730;2022-08-11T15:15:26;5.88;;;2.10;;
67092;SDS011;54011;50.772;7.730;2022-08-11T15:18:13;4.35;;;2.05;;
67092;SDS011;54011;50.772;7.730;2022-08-11T15:20:43;4.32;;;2.05;;
67092;SDS011;54011;50.772;7.730;2022-08-11T15:23:27;7.78;;;2.30;;
67092;SDS011;54011;50.772;7.730;2022-08-11T15:26:14;5.80;;;1.92;;
67092;SDS011;54011;50.772;7.730;2022-08-11T15:28:45;9.18;;;2.30;;
67092;SDS011;54011;50.772;7.730;2022-08-11T15:31:30;4.00;;;2.08;;
67092;SDS011;54011;50.772;7.730;2022-08-11T15:34:11;5.88;;;2.38;;
67092;SDS011;54011;50.772;7.730;2022-08-11T15:36:58;5.28;;;2.13;;
67092;SDS011;54011;50.772;7.730;2022-08-11T15:42:32;4.55;;;2.20;;
67092;SDS011;54011;50.772;7.730;2022-08-11T15:45:21;8.65;;;2.33;;
67092;SDS011;54011;50.772;7.730;2022-08-11T15:48:07;5.88;;;2.45;;
67092;SDS011;54011;50.772;7.730;2022-08-11T15:50:38;4.10;;;2.20;;
67092;SDS011;54011;50.772;7.730;2022-08-11T15:53:11;5.45;;;2.30;;
67092;SDS011;54011;50.772;7.730;2022-08-11T15:55:47;7.25;;;2.10;;
67092;SDS011;54011;50.772;7.730;2022-08-11T15:58:13;8.70;;;2.30;;
67092;SDS011;54011;50.772;7.730;2022-08-11T16:01:01;5.72;;;2.40;;
67092;SDS011;54011;50.772;7.730;2022-08-11T16:03:52;7.97;;;2.20;;
67092;SDS011;54011;50.772;7.730;2022-08-11T16:07:23;8.60;;;2.08;;
67092;SDS011;54011;50.772;7.730;2022-08-11T16:12:33;5.63;;;2.40;;
67092;SDS011;54011;50.772;7.730;2022-08-11T16:15:02;10.65;;;2.30;;
67092;SDS011;54011;50.772;7.730;2022-08-11T16:17:49;6.43;;;1.95;;
67092;SDS011;54011;50.772;7.730;2022-08-11T16:22:45;10.13;;;2.38;;
67092;SDS011;54011;50.772;7.730;2022-08-11T16:25:14;7.10;;;2.10;;
67092;SDS011;54011;50.772;7.730;2022-08-11T16:27:44;6.10;;;2.35;;
67092;SDS011;54011;50.772;7.730;2022-08-11T16:30:12;5.28;;;2.25;;
67092;SDS011;54011;50.772;7.730;2022-08-11T16:32:42;5.68;;;2.20;;
67092;SDS011;54011;50.772;7.730;2022-08-11T16:35:15;7.30;;;2.25;;
67092;SDS011;54011;50.772;7.730;2022-08-11T16:38:03;10.80;;;2.22;;
67092;SDS011;54011;50.772;7.730;2022-08-11T16:40:50;11.30;;;2.38;;
67092;SDS011;54011;50.772;7.730;2022-08-11T16:43:17;4.88;;;2.35;;
67092;SDS011;54011;50.772;7.730;2022-08-11T16:46:20;4.40;;;2.20;;
67092;SDS011;54011;50.772;7.730;2022-08-11T16:49:05;4.97;;;2.05;;
67092;SDS011;54011;50.772;7.730;2022-08-11T16:51:34;7.20;;;2.50;;
67092;SDS011;54011;50.772;7.730;2022-08-11T16:53:59;5.25;;;2.22;;
67092;SDS011;54011;50.772;7.730;2022-08-11T16:56:33;5.43;;;2.42;;
67092;SDS011;54011;50.772;7.730;2022-08-11T16:59:02;7.47;;;2.22;;
67092;SDS011;54011;50.772;7.730;2022-08-11T17:01:42;6.50;;;2.40;;
67092;SDS011;54011;50.772;7.730;2022-08-11T17:04:27;7.13;;;2.25;;
67092;SDS011;54011;50.772;7.730;2022-08-11T17:07:18;5.13;;;2.33;;
67092;SDS011;54011;50.772;7.730;2022-08-11T17:10:04;10.05;;;2.30;;
67092;SDS011;54011;50.772;7.730;2022-08-11T17:12:50;7.43;;;2.60;;
67092;SDS011;54011;50.772;7.730;2022-08-11T17:15:43;10.80;;;2.28;;
67092;SDS011;54011;50.772;7.730;2022-08-11T17:18:30;8.25;;;2.60;;
67092;SDS011;54011;50.772;7.730;2022-08-11T17:21:22;6.07;;;2.53;;
67092;SDS011;54011;50.772;7.730;2022-08-11T17:23:54;4.72;;;2.25;;
67092;SDS011;54011;50.772;7.730;2022-08-11T17:26:28;7.93;;;2.10;;
67092;SDS011;54011;50.772;7.730;2022-08-11T17:29:18;6.65;;;2.13;;
67092;SDS011;54011;50.772;7.730;2022-08-11T17:31:46;4.40;;;2.30;;
67092;SDS011;54011;50.772;7.730;2022-08-11T17:34:32;11.10;;;2.40;;
67092;SDS011;54011;50.772;7.730;2022-08-11T17:37:17;5.88;;;2.20;;
67092;SDS011;54011;50.772;7.730;2022-08-11T17:39:43;4.38;;;2.20;;
67092;SDS011;54011;50.772;7.730;2022-08-11T17:42:10;6.20;;;2.33;;
67092;SDS011;54011;50.772;7.730;2022-08-11T17:44:55;5.25;;;2.30;;
67092;SDS011;54011;50.772;7.730;2022-08-11T17:47:41;6.05;;;2.40;;
67092;SDS011;54011;50.772;7.730;2022-08-11T17:50:26;6.03;;;2.58;;
67092;SDS011;54011;50.772;7.730;2022-08-11T17:52:52;11.70;;;3.42;;
67092;SDS011;54011;50.772;7.730;2022-08-11T17:55:37;5.95;;;2.58;;
67092;SDS011;54011;50.772;7.730;2022-08-11T17:58:22;4.30;;;2.30;;
67092;SDS011;54011;50.772;7.730;2022-08-11T18:01:08;6.93;;;2.42;;
67092;SDS011;54011;50.772;7.730;2022-08-11T18:03:36;4.85;;;2.20;;
67092;SDS011;54011;50.772;7.730;2022-08-11T18:06:05;8.38;;;2.50;;
67092;SDS011;54011;50.772;7.730;2022-08-11T18:08:33;8.57;;;3.08;;
67092;SDS011;54011;50.772;7.730;2022-08-11T18:11:22;6.50;;;2.77;;
67092;SDS011;54011;50.772;7.730;2022-08-11T18:14:09;6.07;;;2.47;;
67092;SDS011;54011;50.772;7.730;2022-08-11T18:16:54;4.65;;;2.50;;
67092;SDS011;54011;50.772;7.730;2022-08-11T18:19:38;5.38;;;2.53;;
67092;SDS011;54011;50.772;7.730;2022-08-11T18:22:24;6.60;;;2.90;;
67092;SDS011;54011;50.772;7.730;2022-08-11T18:25:13;6.22;;;2.38;;
67092;SDS011;54011;50.772;7.730;2022-08-11T18:28:00;9.30;;;2.40;;
67092;SDS011;54011;50.772;7.730;2022-08-11T18:30:49;6.50;;;2.60;;
67092;SDS011;54011;50.772;7.730;2022-08-11T18:33:42;5.00;;;2.30;;
67092;SDS011;54011;50.772;7.730;2022-08-11T18:36:30;7.53;;;2.50;;
67092;SDS011;54011;50.772;7.730;2022-08-11T18:39:19;7.03;;;2.67;;
67092;SDS011;54011;50.772;7.730;2022-08-11T18:42:07;8.35;;;2.42;;
67092;SDS011;54011;50.772;7.730;2022-08-11T18:44:57;7.25;;;3.30;;
67092;SDS011;54011;50.772;7.730;2022-08-11T18:47:45;7.00;;;3.65;;